Terminal Aerodrome Forecast
Issued by NWS

Home | Current Version | Previous Version | Text Only | Print | Product List | Glossary On
Versions: 1 2 3 4 5 6 7 8 9 10 11 12 13 14 15 16 17 18 19 20 21 22
000
FTUS44 KMAF 281600 AAB
TAFPEQ
TAF AMD
KPEQ 281606Z 2816/0112 08006KT 3SM BR OVC006
     FM281800 08005KT P6SM FEW250
     FM010700 11004KT P6SM BKN002=

USA.gov is the U.S. government's official web portal to all federal, state and local government web resources and services.